sensor_id;sensor_type;location;lat;lon;timestamp;P1;durP1;ratioP1;P2;durP2;ratioP2
48945;SDS011;34999;50.940;3.998;2023-08-06T00:01:55;14.90;;;8.80;;
48945;SDS011;34999;50.940;3.998;2023-08-06T00:04:23;16.07;;;8.63;;
48945;SDS011;34999;50.940;3.998;2023-08-06T00:06:51;14.63;;;8.80;;
48945;SDS011;34999;50.940;3.998;2023-08-06T00:09:21;22.00;;;8.70;;
48945;SDS011;34999;50.940;3.998;2023-08-06T00:11:50;18.27;;;8.57;;
48945;SDS011;34999;50.940;3.998;2023-08-06T00:14:18;20.10;;;10.10;;
48945;SDS011;34999;50.940;3.998;2023-08-06T00:16:46;18.33;;;9.60;;
48945;SDS011;34999;50.940;3.998;2023-08-06T00:19:16;18.33;;;9.67;;
48945;SDS011;34999;50.940;3.998;2023-08-06T00:21:44;21.00;;;9.40;;
48945;SDS011;34999;50.940;3.998;2023-08-06T00:24:12;19.67;;;9.37;;
48945;SDS011;34999;50.940;3.998;2023-08-06T00:26:42;21.87;;;10.03;;
48945;SDS011;34999;50.940;3.998;2023-08-06T00:29:11;21.43;;;10.27;;
48945;SDS011;34999;50.940;3.998;2023-08-06T00:31:39;20.73;;;10.73;;
48945;SDS011;34999;50.940;3.998;2023-08-06T00:34:07;20.63;;;9.80;;
48945;SDS011;34999;50.940;3.998;2023-08-06T00:36:36;24.77;;;11.60;;
48945;SDS011;34999;50.940;3.998;2023-08-06T00:39:04;25.47;;;12.00;;
48945;SDS011;34999;50.940;3.998;2023-08-06T00:41:33;27.20;;;13.20;;
48945;SDS011;34999;50.940;3.998;2023-08-06T00:44:03;30.20;;;13.13;;
48945;SDS011;34999;50.940;3.998;2023-08-06T00:46:32;28.10;;;13.27;;
48945;SDS011;34999;50.940;3.998;2023-08-06T00:49:01;29.67;;;14.00;;
48945;SDS011;34999;50.940;3.998;2023-08-06T00:51:30;28.97;;;14.33;;
48945;SDS011;34999;50.940;3.998;2023-08-06T00:53:59;27.63;;;13.63;;
48945;SDS011;34999;50.940;3.998;2023-08-06T00:56:28;28.97;;;14.03;;
48945;SDS011;34999;50.940;3.998;2023-08-06T00:58:56;27.97;;;14.57;;
48945;SDS011;34999;50.940;3.998;2023-08-06T01:01:26;26.97;;;12.80;;
48945;SDS011;34999;50.940;3.998;2023-08-06T01:03:55;24.77;;;12.40;;
48945;SDS011;34999;50.940;3.998;2023-08-06T01:06:26;29.77;;;11.77;;
48945;SDS011;34999;50.940;3.998;2023-08-06T01:09:04;18.73;;;9.60;;
48945;SDS011;34999;50.940;3.998;2023-08-06T01:11:41;18.33;;;8.87;;
48945;SDS011;34999;50.940;3.998;2023-08-06T01:14:18;16.97;;;7.63;;
48945;SDS011;34999;50.940;3.998;2023-08-06T01:16:52;13.63;;;6.50;;
48945;SDS011;34999;50.940;3.998;2023-08-06T01:19:22;18.13;;;6.57;;
48945;SDS011;34999;50.940;3.998;2023-08-06T01:21:52;11.43;;;4.80;;
48945;SDS011;34999;50.940;3.998;2023-08-06T01:24:20;10.73;;;4.37;;
48945;SDS011;34999;50.940;3.998;2023-08-06T01:26:51;12.47;;;3.60;;
48945;SDS011;34999;50.940;3.998;2023-08-06T01:29:28;7.33;;;3.67;;
48945;SDS011;34999;50.940;3.998;2023-08-06T01:32:02;12.40;;;3.50;;
48945;SDS011;34999;50.940;3.998;2023-08-06T01:34:32;8.33;;;2.90;;
48945;SDS011;34999;50.940;3.998;2023-08-06T01:37:04;9.47;;;3.57;;
48945;SDS011;34999;50.940;3.998;2023-08-06T01:39:33;11.73;;;3.50;;
48945;SDS011;34999;50.940;3.998;2023-08-06T01:42:01;12.13;;;3.33;;
48945;SDS011;34999;50.940;3.998;2023-08-06T01:44:30;12.33;;;2.93;;
48945;SDS011;34999;50.940;3.998;2023-08-06T01:46:58;8.63;;;3.23;;
48945;SDS011;34999;50.940;3.998;2023-08-06T01:49:27;15.03;;;3.53;;
48945;SDS011;34999;50.940;3.998;2023-08-06T01:51:55;12.97;;;3.10;;
48945;SDS011;34999;50.940;3.998;2023-08-06T01:54:25;11.43;;;3.13;;
48945;SDS011;34999;50.940;3.998;2023-08-06T01:56:54;8.97;;;3.23;;
48945;SDS011;34999;50.940;3.998;2023-08-06T01:59:22;9.63;;;3.37;;
48945;SDS011;34999;50.940;3.998;2023-08-06T02:01:50;7.87;;;2.90;;
48945;SDS011;34999;50.940;3.998;2023-08-06T02:04:19;7.77;;;3.50;;
48945;SDS011;34999;50.940;3.998;2023-08-06T02:06:47;13.53;;;4.27;;
48945;SDS011;34999;50.940;3.998;2023-08-06T02:09:16;17.87;;;4.70;;
48945;SDS011;34999;50.940;3.998;2023-08-06T02:11:45;12.17;;;4.90;;
48945;SDS011;34999;50.940;3.998;2023-08-06T02:14:15;15.00;;;6.00;;
48945;SDS011;34999;50.940;3.998;2023-08-06T02:16:43;15.63;;;7.90;;
48945;SDS011;34999;50.940;3.998;2023-08-06T02:19:11;21.60;;;10.63;;
48945;SDS011;34999;50.940;3.998;2023-08-06T02:21:47;23.60;;;11.20;;
48945;SDS011;34999;50.940;3.998;2023-08-06T02:24:16;31.20;;;13.87;;
48945;SDS011;34999;50.940;3.998;2023-08-06T02:26:45;35.13;;;15.10;;
48945;SDS011;34999;50.940;3.998;2023-08-06T02:29:16;37.83;;;16.27;;
48945;SDS011;34999;50.940;3.998;2023-08-06T02:31:44;37.27;;;16.00;;
48945;SDS011;34999;50.940;3.998;2023-08-06T02:34:12;39.20;;;16.33;;
48945;SDS011;34999;50.940;3.998;2023-08-06T02:36:41;39.13;;;14.20;;
48945;SDS011;34999;50.940;3.998;2023-08-06T02:39:10;30.87;;;13.53;;
48945;SDS011;34999;50.940;3.998;2023-08-06T02:41:38;16.97;;;8.67;;
48945;SDS011;34999;50.940;3.998;2023-08-06T02:44:08;19.03;;;7.27;;
48945;SDS011;34999;50.940;3.998;2023-08-06T02:46:36;22.43;;;7.77;;
48945;SDS011;34999;50.940;3.998;2023-08-06T02:49:04;12.37;;;7.07;;
48945;SDS011;34999;50.940;3.998;2023-08-06T02:51:33;8.33;;;5.57;;
48945;SDS011;34999;50.940;3.998;2023-08-06T02:54:02;7.60;;;4.70;;
48945;SDS011;34999;50.940;3.998;2023-08-06T02:56:30;4.47;;;4.17;;
48945;SDS011;34999;50.940;3.998;2023-08-06T02:58:58;7.67;;;4.13;;
48945;SDS011;34999;50.940;3.998;2023-08-06T03:01:28;7.43;;;3.57;;
48945;SDS011;34999;50.940;3.998;2023-08-06T03:03:56;6.13;;;2.97;;
48945;SDS011;34999;50.940;3.998;2023-08-06T03:06:24;5.77;;;3.20;;
48945;SDS011;34999;50.940;3.998;2023-08-06T03:08:54;4.27;;;2.80;;
48945;SDS011;34999;50.940;3.998;2023-08-06T03:11:22;7.97;;;3.00;;
48945;SDS011;34999;50.940;3.998;2023-08-06T03:13:50;8.50;;;3.60;;
48945;SDS011;34999;50.940;3.998;2023-08-06T03:16:19;5.37;;;3.80;;
48945;SDS011;34999;50.940;3.998;2023-08-06T03:18:48;5.87;;;4.00;;
48945;SDS011;34999;50.940;3.998;2023-08-06T03:21:17;8.00;;;4.10;;
48945;SDS011;34999;50.940;3.998;2023-08-06T03:23:46;9.90;;;4.67;;
48945;SDS011;34999;50.940;3.998;2023-08-06T03:26:15;8.73;;;4.37;;
48945;SDS011;34999;50.940;3.998;2023-08-06T03:28:43;5.83;;;4.50;;
48945;SDS011;34999;50.940;3.998;2023-08-06T03:31:11;10.10;;;5.00;;
48945;SDS011;34999;50.940;3.998;2023-08-06T03:33:40;15.93;;;5.03;;
48945;SDS011;34999;50.940;3.998;2023-08-06T03:36:10;8.80;;;4.73;;
48945;SDS011;34999;50.940;3.998;2023-08-06T03:38:38;9.53;;;5.37;;
48945;SDS011;34999;50.940;3.998;2023-08-06T03:41:07;11.23;;;5.30;;
48945;SDS011;34999;50.940;3.998;2023-08-06T03:43:35;12.07;;;4.93;;
48945;SDS011;34999;50.940;3.998;2023-08-06T03:46:04;8.03;;;5.47;;
48945;SDS011;34999;50.940;3.998;2023-08-06T03:48:32;14.90;;;5.43;;
48945;SDS011;34999;50.940;3.998;2023-08-06T03:51:01;10.33;;;5.60;;
48945;SDS011;34999;50.940;3.998;2023-08-06T03:53:31;13.37;;;5.43;;
48945;SDS011;34999;50.940;3.998;2023-08-06T03:55:59;10.63;;;5.77;;
48945;SDS011;34999;50.940;3.998;2023-08-06T03:58:29;13.50;;;6.30;;
48945;SDS011;34999;50.940;3.998;2023-08-06T04:00:58;11.40;;;5.93;;
48945;SDS011;34999;50.940;3.998;2023-08-06T04:03:27;13.63;;;6.23;;
48945;SDS011;34999;50.940;3.998;2023-08-06T04:05:56;9.17;;;6.37;;
48945;SDS011;34999;50.940;3.998;2023-08-06T04:08:24;13.27;;;6.80;;
48945;SDS011;34999;50.940;3.998;2023-08-06T04:10:53;16.53;;;7.50;;
48945;SDS011;34999;50.940;3.998;2023-08-06T04:13:22;15.80;;;9.07;;
48945;SDS011;34999;50.940;3.998;2023-08-06T04:15:50;18.17;;;9.57;;
48945;SDS011;34999;50.940;3.998;2023-08-06T04:18:19;18.90;;;10.30;;
48945;SDS011;34999;50.940;3.998;2023-08-06T04:20:48;17.60;;;9.10;;
48945;SDS011;34999;50.940;3.998;2023-08-06T04:23:18;26.43;;;10.63;;
48945;SDS011;34999;50.940;3.998;2023-08-06T04:25:47;26.40;;;12.97;;
48945;SDS011;34999;50.940;3.998;2023-08-06T04:28:16;26.20;;;12.90;;
48945;SDS011;34999;50.940;3.998;2023-08-06T04:30:45;28.10;;;12.50;;
48945;SDS011;34999;50.940;3.998;2023-08-06T04:33:13;20.77;;;9.50;;
48945;SDS011;34999;50.940;3.998;2023-08-06T04:35:42;15.63;;;8.10;;
48945;SDS011;34999;50.940;3.998;2023-08-06T04:38:10;14.40;;;6.50;;
48945;SDS011;34999;50.940;3.998;2023-08-06T04:40:38;12.57;;;6.03;;
48945;SDS011;34999;50.940;3.998;2023-08-06T04:43:06;14.73;;;6.30;;
48945;SDS011;34999;50.940;3.998;2023-08-06T04:45:36;14.10;;;5.67;;
48945;SDS011;34999;50.940;3.998;2023-08-06T04:48:04;14.60;;;5.30;;
48945;SDS011;34999;50.940;3.998;2023-08-06T04:50:32;15.63;;;5.40;;
48945;SDS011;34999;50.940;3.998;2023-08-06T04:53:01;15.60;;;5.57;;
48945;SDS011;34999;50.940;3.998;2023-08-06T04:55:29;16.13;;;5.47;;
48945;SDS011;34999;50.940;3.998;2023-08-06T04:57:57;13.53;;;5.90;;
48945;SDS011;34999;50.940;3.998;2023-08-06T05:00:26;16.77;;;5.53;;
48945;SDS011;34999;50.940;3.998;2023-08-06T05:02:55;12.43;;;5.40;;
48945;SDS011;34999;50.940;3.998;2023-08-06T05:05:24;13.30;;;4.97;;
48945;SDS011;34999;50.940;3.998;2023-08-06T05:07:53;13.00;;;4.77;;
48945;SDS011;34999;50.940;3.998;2023-08-06T05:10:24;14.37;;;4.67;;
48945;SDS011;34999;50.940;3.998;2023-08-06T05:12:52;9.13;;;4.40;;
48945;SDS011;34999;50.940;3.998;2023-08-06T05:15:23;13.27;;;4.53;;
48945;SDS011;34999;50.940;3.998;2023-08-06T05:17:52;13.50;;;4.20;;
48945;SDS011;34999;50.940;3.998;2023-08-06T05:20:22;11.50;;;4.53;;
48945;SDS011;34999;50.940;3.998;2023-08-06T05:22:50;20.03;;;4.90;;
48945;SDS011;34999;50.940;3.998;2023-08-06T05:25:19;9.97;;;5.10;;
48945;SDS011;34999;50.940;3.998;2023-08-06T05:27:48;8.53;;;4.33;;
48945;SDS011;34999;50.940;3.998;2023-08-06T05:30:16;14.87;;;4.37;;
48945;SDS011;34999;50.940;3.998;2023-08-06T05:32:44;8.53;;;4.00;;
48945;SDS011;34999;50.940;3.998;2023-08-06T05:35:13;15.63;;;5.23;;
48945;SDS011;34999;50.940;3.998;2023-08-06T05:37:43;8.53;;;4.70;;
48945;SDS011;34999;50.940;3.998;2023-08-06T05:40:11;11.07;;;4.53;;
48945;SDS011;34999;50.940;3.998;2023-08-06T05:42:39;13.97;;;4.97;;
48945;SDS011;34999;50.940;3.998;2023-08-06T05:45:08;9.90;;;4.73;;
48945;SDS011;34999;50.940;3.998;2023-08-06T05:47:37;11.33;;;4.40;;
48945;SDS011;34999;50.940;3.998;2023-08-06T05:50:06;18.63;;;4.87;;
48945;SDS011;34999;50.940;3.998;2023-08-06T05:52:35;12.13;;;4.70;;
48945;SDS011;34999;50.940;3.998;2023-08-06T05:55:05;11.80;;;4.37;;
48945;SDS011;34999;50.940;3.998;2023-08-06T05:57:34;14.20;;;4.97;;
48945;SDS011;34999;50.940;3.998;2023-08-06T06:00:03;14.67;;;4.80;;
48945;SDS011;34999;50.940;3.998;2023-08-06T06:02:32;11.13;;;5.60;;
48945;SDS011;34999;50.940;3.998;2023-08-06T06:05:01;11.00;;;4.97;;
48945;SDS011;34999;50.940;3.998;2023-08-06T06:07:29;14.00;;;4.87;;
48945;SDS011;34999;50.940;3.998;2023-08-06T06:09:57;13.87;;;4.80;;
48945;SDS011;34999;50.940;3.998;2023-08-06T06:12:27;6.67;;;4.30;;
48945;SDS011;34999;50.940;3.998;2023-08-06T06:14:55;11.57;;;4.20;;
48945;SDS011;34999;50.940;3.998;2023-08-06T06:20:13;10.77;;;4.33;;
48945;SDS011;34999;50.940;3.998;2023-08-06T06:22:41;7.97;;;4.20;;
48945;SDS011;34999;50.940;3.998;2023-08-06T06:25:09;12.07;;;3.93;;
48945;SDS011;34999;50.940;3.998;2023-08-06T06:27:39;11.00;;;4.00;;
48945;SDS011;34999;50.940;3.998;2023-08-06T06:30:08;5.27;;;3.37;;
48945;SDS011;34999;50.940;3.998;2023-08-06T06:32:38;9.80;;;4.47;;
48945;SDS011;34999;50.940;3.998;2023-08-06T06:35:08;11.80;;;4.00;;
48945;SDS011;34999;50.940;3.998;2023-08-06T06:37:36;6.80;;;3.37;;
48945;SDS011;34999;50.940;3.998;2023-08-06T06:40:05;10.43;;;3.30;;
48945;SDS011;34999;50.940;3.998;2023-08-06T06:42:34;11.00;;;3.73;;
48945;SDS011;34999;50.940;3.998;2023-08-06T06:45:04;14.00;;;3.67;;
48945;SDS011;34999;50.940;3.998;2023-08-06T06:47:33;11.40;;;3.00;;
48945;SDS011;34999;50.940;3.998;2023-08-06T06:50:02;6.10;;;2.10;;
48945;SDS011;34999;50.940;3.998;2023-08-06T06:52:30;9.17;;;2.07;;
48945;SDS011;34999;50.940;3.998;2023-08-06T06:54:59;11.60;;;2.53;;
48945;SDS011;34999;50.940;3.998;2023-08-06T06:57:27;8.97;;;2.10;;
48945;SDS011;34999;50.940;3.998;2023-08-06T06:59:56;5.07;;;1.87;;
48945;SDS011;34999;50.940;3.998;2023-08-06T07:02:26;2.30;;;1.53;;
48945;SDS011;34999;50.940;3.998;2023-08-06T07:04:54;6.30;;;2.03;;
48945;SDS011;34999;50.940;3.998;2023-08-06T07:07:22;12.63;;;2.40;;
48945;SDS011;34999;50.940;3.998;2023-08-06T07:09:51;5.47;;;2.40;;
48945;SDS011;34999;50.940;3.998;2023-08-06T07:12:20;11.77;;;1.90;;
48945;SDS011;34999;50.940;3.998;2023-08-06T07:14:48;7.53;;;2.13;;
48945;SDS011;34999;50.940;3.998;2023-08-06T07:17:18;12.40;;;2.23;;
48945;SDS011;34999;50.940;3.998;2023-08-06T07:19:48;10.83;;;2.60;;
48945;SDS011;34999;50.940;3.998;2023-08-06T07:22:16;22.70;;;2.60;;
48945;SDS011;34999;50.940;3.998;2023-08-06T07:24:44;9.77;;;2.80;;
48945;SDS011;34999;50.940;3.998;2023-08-06T07:27:13;8.80;;;2.63;;
48945;SDS011;34999;50.940;3.998;2023-08-06T07:29:41;12.37;;;2.70;;
48945;SDS011;34999;50.940;3.998;2023-08-06T07:32:09;13.90;;;2.37;;
48945;SDS011;34999;50.940;3.998;2023-08-06T07:34:37;7.57;;;2.37;;
48945;SDS011;34999;50.940;3.998;2023-08-06T07:37:07;12.10;;;2.40;;
48945;SDS011;34999;50.940;3.998;2023-08-06T07:39:35;8.53;;;2.30;;
48945;SDS011;34999;50.940;3.998;2023-08-06T07:42:06;8.03;;;2.20;;
48945;SDS011;34999;50.940;3.998;2023-08-06T07:44:34;6.57;;;2.23;;
48945;SDS011;34999;50.940;3.998;2023-08-06T07:47:02;8.60;;;2.57;;
48945;SDS011;34999;50.940;3.998;2023-08-06T07:49:31;11.10;;;2.67;;
48945;SDS011;34999;50.940;3.998;2023-08-06T07:52:00;10.87;;;3.00;;
48945;SDS011;34999;50.940;3.998;2023-08-06T07:54:30;10.07;;;2.27;;
48945;SDS011;34999;50.940;3.998;2023-08-06T07:56:58;11.20;;;2.40;;
48945;SDS011;34999;50.940;3.998;2023-08-06T07:59:27;7.53;;;2.30;;
48945;SDS011;34999;50.940;3.998;2023-08-06T08:01:55;12.87;;;2.63;;
48945;SDS011;34999;50.940;3.998;2023-08-06T08:04:24;6.40;;;2.37;;
48945;SDS011;34999;50.940;3.998;2023-08-06T08:06:52;7.93;;;2.80;;
48945;SDS011;34999;50.940;3.998;2023-08-06T08:09:20;6.33;;;2.33;;
48945;SDS011;34999;50.940;3.998;2023-08-06T08:11:50;14.77;;;2.77;;
48945;SDS011;34999;50.940;3.998;2023-08-06T08:14:20;5.97;;;2.57;;
48945;SDS011;34999;50.940;3.998;2023-08-06T08:16:51;8.83;;;2.30;;
48945;SDS011;34999;50.940;3.998;2023-08-06T08:19:19;8.67;;;2.00;;
48945;SDS011;34999;50.940;3.998;2023-08-06T08:21:47;8.90;;;2.43;;
48945;SDS011;34999;50.940;3.998;2023-08-06T08:24:16;7.77;;;2.13;;
48945;SDS011;34999;50.940;3.998;2023-08-06T08:26:46;6.37;;;2.00;;
48945;SDS011;34999;50.940;3.998;2023-08-06T08:29:16;6.90;;;2.07;;
48945;SDS011;34999;50.940;3.998;2023-08-06T08:31:44;5.40;;;2.00;;
48945;SDS011;34999;50.940;3.998;2023-08-06T08:34:15;6.90;;;2.17;;
48945;SDS011;34999;50.940;3.998;2023-08-06T08:36:44;5.07;;;1.87;;
48945;SDS011;34999;50.940;3.998;2023-08-06T08:39:13;12.37;;;2.37;;
48945;SDS011;34999;50.940;3.998;2023-08-06T08:41:42;12.80;;;2.37;;
48945;SDS011;34999;50.940;3.998;2023-08-06T08:44:11;10.60;;;2.10;;
48945;SDS011;34999;50.940;3.998;2023-08-06T08:46:44;6.47;;;2.07;;
48945;SDS011;34999;50.940;3.998;2023-08-06T08:49:14;9.77;;;2.57;;
48945;SDS011;34999;50.940;3.998;2023-08-06T08:51:43;5.87;;;2.20;;
48945;SDS011;34999;50.940;3.998;2023-08-06T08:54:12;13.77;;;2.20;;
48945;SDS011;34999;50.940;3.998;2023-08-06T08:56:42;8.43;;;2.37;;
48945;SDS011;34999;50.940;3.998;2023-08-06T08:59:11;8.83;;;2.17;;
48945;SDS011;34999;50.940;3.998;2023-08-06T09:01:41;7.97;;;2.33;;
48945;SDS011;34999;50.940;3.998;2023-08-06T09:04:12;12.13;;;2.83;;
48945;SDS011;34999;50.940;3.998;2023-08-06T09:06:42;6.27;;;2.20;;
48945;SDS011;34999;50.940;3.998;2023-08-06T09:09:15;7.53;;;2.47;;
48945;SDS011;34999;50.940;3.998;2023-08-06T09:11:49;6.57;;;2.13;;
48945;SDS011;34999;50.940;3.998;2023-08-06T09:14:19;10.30;;;2.47;;
48945;SDS011;34999;50.940;3.998;2023-08-06T09:16:49;12.33;;;2.50;;
48945;SDS011;34999;50.940;3.998;2023-08-06T09:19:18;6.27;;;2.10;;
48945;SDS011;34999;50.940;3.998;2023-08-06T09:21:48;7.60;;;2.23;;
48945;SDS011;34999;50.940;3.998;2023-08-06T09:24:20;11.53;;;2.60;;
48945;SDS011;34999;50.940;3.998;2023-08-06T09:26:48;9.20;;;2.70;;
48945;SDS011;34999;50.940;3.998;2023-08-06T09:29:16;6.70;;;2.30;;
48945;SDS011;34999;50.940;3.998;2023-08-06T09:31:45;7.07;;;2.47;;
48945;SDS011;34999;50.940;3.998;2023-08-06T09:34:17;9.93;;;2.20;;
48945;SDS011;34999;50.940;3.998;2023-08-06T09:36:46;11.30;;;2.33;;
48945;SDS011;34999;50.940;3.998;2023-08-06T09:39:17;7.43;;;2.13;;
48945;SDS011;34999;50.940;3.998;2023-08-06T09:41:46;14.57;;;2.63;;
48945;SDS011;34999;50.940;3.998;2023-08-06T09:44:16;10.47;;;2.03;;
48945;SDS011;34999;50.940;3.998;2023-08-06T09:46:49;5.43;;;1.87;;
48945;SDS011;34999;50.940;3.998;2023-08-06T09:49:26;6.77;;;1.80;;
48945;SDS011;34999;50.940;3.998;2023-08-06T09:51:56;6.27;;;2.23;;
48945;SDS011;34999;50.940;3.998;2023-08-06T09:54:31;6.50;;;2.00;;
48945;SDS011;34999;50.940;3.998;2023-08-06T09:57:03;7.47;;;2.30;;
48945;SDS011;34999;50.940;3.998;2023-08-06T09:59:32;5.57;;;1.87;;
48945;SDS011;34999;50.940;3.998;2023-08-06T10:02:01;5.77;;;1.90;;
48945;SDS011;34999;50.940;3.998;2023-08-06T10:04:37;5.53;;;1.80;;
48945;SDS011;34999;50.940;3.998;2023-08-06T10:07:07;4.43;;;2.00;;
48945;SDS011;34999;50.940;3.998;2023-08-06T10:09:36;5.60;;;2.30;;
48945;SDS011;34999;50.940;3.998;2023-08-06T10:12:05;3.80;;;2.13;;
48945;SDS011;34999;50.940;3.998;2023-08-06T10:14:34;5.83;;;2.30;;
48945;SDS011;34999;50.940;3.998;2023-08-06T10:17:05;10.93;;;2.40;;
48945;SDS011;34999;50.940;3.998;2023-08-06T10:19:33;5.90;;;2.37;;
48945;SDS011;34999;50.940;3.998;2023-08-06T10:22:11;9.17;;;2.17;;
48945;SDS011;34999;50.940;3.998;2023-08-06T10:24:46;6.80;;;2.40;;
48945;SDS011;34999;50.940;3.998;2023-08-06T10:27:19;6.57;;;2.13;;
48945;SDS011;34999;50.940;3.998;2023-08-06T10:29:56;4.57;;;2.37;;
48945;SDS011;34999;50.940;3.998;2023-08-06T10:32:51;6.40;;;2.47;;
48945;SDS011;34999;50.940;3.998;2023-08-06T10:35:27;6.70;;;2.40;;
48945;SDS011;34999;50.940;3.998;2023-08-06T10:37:59;7.57;;;2.23;;
48945;SDS011;34999;50.940;3.998;2023-08-06T10:40:31;7.90;;;2.20;;
48945;SDS011;34999;50.940;3.998;2023-08-06T10:43:00;8.87;;;2.23;;
48945;SDS011;34999;50.940;3.998;2023-08-06T10:45:28;7.23;;;2.50;;
48945;SDS011;34999;50.940;3.998;2023-08-06T10:47:57;6.60;;;2.37;;
48945;SDS011;34999;50.940;3.998;2023-08-06T10:50:26;5.03;;;1.90;;
48945;SDS011;34999;50.940;3.998;2023-08-06T10:52:54;4.03;;;2.20;;
48945;SDS011;34999;50.940;3.998;2023-08-06T10:55:24;6.57;;;2.00;;
48945;SDS011;34999;50.940;3.998;2023-08-06T10:57:54;5.60;;;2.00;;
48945;SDS011;34999;50.940;3.998;2023-08-06T11:00:23;7.03;;;2.23;;
48945;SDS011;34999;50.940;3.998;2023-08-06T11:02:51;5.70;;;1.90;;
48945;SDS011;34999;50.940;3.998;2023-08-06T11:05:22;5.80;;;1.90;;
48945;SDS011;34999;50.940;3.998;2023-08-06T11:07:50;5.33;;;1.80;;
48945;SDS011;34999;50.940;3.998;2023-08-06T11:10:19;4.90;;;2.10;;
48945;SDS011;34999;50.940;3.998;2023-08-06T11:12:48;6.53;;;2.03;;
48945;SDS011;34999;50.940;3.998;2023-08-06T11:15:17;5.00;;;2.13;;
48945;SDS011;34999;50.940;3.998;2023-08-06T11:17:47;10.87;;;2.60;;
48945;SDS011;34999;50.940;3.998;2023-08-06T11:20:15;6.23;;;1.70;;
48945;SDS011;34999;50.940;3.998;2023-08-06T11:22:44;9.33;;;2.43;;
48945;SDS011;34999;50.940;3.998;2023-08-06T11:25:12;9.03;;;2.17;;
48945;SDS011;34999;50.940;3.998;2023-08-06T11:27:40;4.40;;;1.80;;
48945;SDS011;34999;50.940;3.998;2023-08-06T11:30:12;5.13;;;2.10;;
48945;SDS011;34999;50.940;3.998;2023-08-06T11:32:46;11.27;;;2.23;;
48945;SDS011;34999;50.940;3.998;2023-08-06T11:35:15;10.60;;;2.03;;
48945;SDS011;34999;50.940;3.998;2023-08-06T11:37:44;5.10;;;2.00;;
48945;SDS011;34999;50.940;3.998;2023-08-06T11:40:17;3.30;;;1.60;;
48945;SDS011;34999;50.940;3.998;2023-08-06T11:42:46;6.00;;;2.10;;
48945;SDS011;34999;50.940;3.998;2023-08-06T11:45:16;8.97;;;2.00;;
48945;SDS011;34999;50.940;3.998;2023-08-06T11:47:49;5.47;;;2.00;;
48945;SDS011;34999;50.940;3.998;2023-08-06T11:50:23;4.43;;;1.97;;
48945;SDS011;34999;50.940;3.998;2023-08-06T11:52:56;3.93;;;2.13;;
48945;SDS011;34999;50.940;3.998;2023-08-06T11:55:26;8.23;;;2.30;;
48945;SDS011;34999;50.940;3.998;2023-08-06T11:57:56;7.27;;;2.10;;
48945;SDS011;34999;50.940;3.998;2023-08-06T12:00:26;7.20;;;2.10;;
48945;SDS011;34999;50.940;3.998;2023-08-06T12:02:54;4.87;;;1.90;;
48945;SDS011;34999;50.940;3.998;2023-08-06T12:05:28;7.47;;;2.10;;
48945;SDS011;34999;50.940;3.998;2023-08-06T12:08:00;7.77;;;2.23;;
48945;SDS011;34999;50.940;3.998;2023-08-06T12:10:30;7.63;;;1.97;;
48945;SDS011;34999;50.940;3.998;2023-08-06T12:12:59;11.90;;;2.20;;
48945;SDS011;34999;50.940;3.998;2023-08-06T12:15:30;6.97;;;2.00;;
48945;SDS011;34999;50.940;3.998;2023-08-06T12:17:59;8.67;;;2.57;;
48945;SDS011;34999;50.940;3.998;2023-08-06T12:20:27;5.07;;;2.17;;
48945;SDS011;34999;50.940;3.998;2023-08-06T12:22:56;4.90;;;2.10;;
48945;SDS011;34999;50.940;3.998;2023-08-06T12:25:24;6.27;;;2.23;;
48945;SDS011;34999;50.940;3.998;2023-08-06T12:27:52;5.90;;;2.03;;
48945;SDS011;34999;50.940;3.998;2023-08-06T12:30:20;6.70;;;2.37;;
48945;SDS011;34999;50.940;3.998;2023-08-06T12:32:50;9.97;;;2.70;;
48945;SDS011;34999;50.940;3.998;2023-08-06T12:35:19;6.70;;;2.10;;
48945;SDS011;34999;50.940;3.998;2023-08-06T12:37:47;7.37;;;2.00;;
48945;SDS011;34999;50.940;3.998;2023-08-06T12:40:17;6.77;;;2.37;;
48945;SDS011;34999;50.940;3.998;2023-08-06T12:43:02;9.23;;;2.13;;
48945;SDS011;34999;50.940;3.998;2023-08-06T12:45:30;5.27;;;2.07;;
48945;SDS011;34999;50.940;3.998;2023-08-06T12:48:00;6.67;;;1.97;;
48945;SDS011;34999;50.940;3.998;2023-08-06T12:50:30;6.17;;;2.20;;
48945;SDS011;34999;50.940;3.998;2023-08-06T12:52:59;8.80;;;2.00;;
48945;SDS011;34999;50.940;3.998;2023-08-06T12:55:28;6.67;;;2.03;;
48945;SDS011;34999;50.940;3.998;2023-08-06T12:57:59;6.57;;;2.40;;
48945;SDS011;34999;50.940;3.998;2023-08-06T13:00:27;7.93;;;2.03;;
48945;SDS011;34999;50.940;3.998;2023-08-06T13:02:55;3.10;;;1.77;;
48945;SDS011;34999;50.940;3.998;2023-08-06T13:05:25;10.10;;;1.93;;
48945;SDS011;34999;50.940;3.998;2023-08-06T13:07:54;4.67;;;2.30;;
48945;SDS011;34999;50.940;3.998;2023-08-06T13:10:23;4.87;;;2.00;;
48945;SDS011;34999;50.940;3.998;2023-08-06T13:12:52;5.93;;;2.30;;
48945;SDS011;34999;50.940;3.998;2023-08-06T13:15:20;5.57;;;2.23;;
48945;SDS011;34999;50.940;3.998;2023-08-06T13:17:49;5.80;;;2.10;;
48945;SDS011;34999;50.940;3.998;2023-08-06T13:20:18;7.37;;;2.53;;
48945;SDS011;34999;50.940;3.998;2023-08-06T13:22:48;6.57;;;2.10;;
48945;SDS011;34999;50.940;3.998;2023-08-06T13:25:19;4.63;;;1.90;;
48945;SDS011;34999;50.940;3.998;2023-08-06T13:27:48;6.10;;;1.83;;
48945;SDS011;34999;50.940;3.998;2023-08-06T13:30:16;6.13;;;2.20;;
48945;SDS011;34999;50.940;3.998;2023-08-06T13:32:46;6.27;;;2.10;;
48945;SDS011;34999;50.940;3.998;2023-08-06T13:35:15;6.10;;;1.93;;
48945;SDS011;34999;50.940;3.998;2023-08-06T13:37:43;4.87;;;2.07;;
48945;SDS011;34999;50.940;3.998;2023-08-06T13:40:13;8.33;;;2.20;;
48945;SDS011;34999;50.940;3.998;2023-08-06T13:42:41;6.47;;;1.97;;
48945;SDS011;34999;50.940;3.998;2023-08-06T13:45:10;8.57;;;2.00;;
48945;SDS011;34999;50.940;3.998;2023-08-06T13:47:38;5.37;;;1.80;;
48945;SDS011;34999;50.940;3.998;2023-08-06T13:50:06;6.03;;;1.77;;
48945;SDS011;34999;50.940;3.998;2023-08-06T13:52:35;4.73;;;1.80;;
48945;SDS011;34999;50.940;3.998;2023-08-06T13:55:04;5.30;;;1.77;;
48945;SDS011;34999;50.940;3.998;2023-08-06T13:57:34;4.40;;;1.87;;
48945;SDS011;34999;50.940;3.998;2023-08-06T14:00:03;4.83;;;2.20;;
48945;SDS011;34999;50.940;3.998;2023-08-06T14:02:33;6.90;;;2.40;;
48945;SDS011;34999;50.940;3.998;2023-08-06T14:05:01;4.40;;;1.90;;
48945;SDS011;34999;50.940;3.998;2023-08-06T14:07:30;9.00;;;2.13;;
48945;SDS011;34999;50.940;3.998;2023-08-06T14:09:58;4.10;;;1.90;;
48945;SDS011;34999;50.940;3.998;2023-08-06T14:12:26;7.27;;;2.23;;
48945;SDS011;34999;50.940;3.998;2023-08-06T14:14:56;7.30;;;2.20;;
48945;SDS011;34999;50.940;3.998;2023-08-06T14:17:25;5.10;;;2.20;;
48945;SDS011;34999;50.940;3.998;2023-08-06T14:19:53;5.20;;;2.13;;
48945;SDS011;34999;50.940;3.998;2023-08-06T14:22:22;4.97;;;2.30;;
48945;SDS011;34999;50.940;3.998;2023-08-06T14:24:50;4.27;;;1.97;;
48945;SDS011;34999;50.940;3.998;2023-08-06T14:27:21;4.00;;;1.90;;
48945;SDS011;34999;50.940;3.998;2023-08-06T14:29:50;4.33;;;2.10;;
48945;SDS011;34999;50.940;3.998;2023-08-06T14:32:19;9.00;;;2.20;;
48945;SDS011;34999;50.940;3.998;2023-08-06T14:34:48;3.43;;;1.90;;
48945;SDS011;34999;50.940;3.998;2023-08-06T14:37:16;6.07;;;1.93;;
48945;SDS011;34999;50.940;3.998;2023-08-06T14:39:44;10.93;;;2.77;;
48945;SDS011;34999;50.940;3.998;2023-08-06T14:42:13;5.30;;;1.73;;
48945;SDS011;34999;50.940;3.998;2023-08-06T14:44:41;5.43;;;2.37;;
48945;SDS011;34999;50.940;3.998;2023-08-06T14:47:09;3.90;;;2.03;;
48945;SDS011;34999;50.940;3.998;2023-08-06T14:49:39;5.37;;;2.17;;
48945;SDS011;34999;50.940;3.998;2023-08-06T14:52:08;11.10;;;2.10;;
48945;SDS011;34999;50.940;3.998;2023-08-06T14:54:36;8.43;;;2.00;;
48945;SDS011;34999;50.940;3.998;2023-08-06T14:57:04;7.20;;;1.80;;